Time;durP1;ratioP1;P1;durP2;ratioP2;P2;SDS_P1;SDS_P2;PMS_P1;PMS_P2;Temp;Humidity;BMP_temperature;BMP_pressure;BME280_temperature;BME280_humidity;BME280_pressure;Samples;Min_cycle;Max_cycle;Signal;HPM_P1;HPM_P2
2024/01/10 00:02:06;;;;;;;3.98;2.25;;;;;;;-4.05;82.98;101369.63;1736411;82;21044;-64
2024/01/10 00:04:35;;;;;;;7.92;2.60;;;;;;;-4.09;82.87;101353.34;1741298;82;21031;-65
2024/01/10 00:07:05;;;;;;;6.58;2.42;;;;;;;-4.13;82.90;101347.30;1736348;83;21016;-65
2024/01/10 00:09:33;;;;;;;6.58;2.40;;;;;;;-4.13;82.80;101350.44;1741478;82;21043;-64
2024/01/10 00:12:02;;;;;;;5.28;2.30;;;;;;;-4.18;82.66;101348.87;1741264;82;21040;-63
2024/01/10 00:14:31;;;;;;;3.67;1.95;;;;;;;-4.20;82.64;101343.20;1741613;82;21024;-64
2024/01/10 00:16:59;;;;;;;10.43;4.20;;;;;;;-4.21;82.60;101344.16;1736451;83;21036;-65
2024/01/10 00:19:28;;;;;;;6.33;2.75;;;;;;;-4.20;82.46;101336.52;1741489;82;21012;-66
2024/01/10 00:21:58;;;;;;;9.90;2.95;;;;;;;-4.24;82.31;101341.17;1736332;82;21117;-63
2024/01/10 00:24:26;;;;;;;6.12;2.92;;;;;;;-4.26;82.01;101332.36;1741331;82;21520;-64
2024/01/10 00:26:55;;;;;;;4.83;2.75;;;;;;;-4.29;81.84;101335.20;1736485;82;21072;-65
2024/01/10 00:29:24;;;;;;;6.65;2.83;;;;;;;-4.33;81.52;101342.13;1741343;82;21077;-65
2024/01/10 00:31:53;;;;;;;5.30;2.20;;;;;;;-4.39;81.27;101320.56;1736541;82;21076;-64
2024/01/10 00:34:21;;;;;;;5.17;2.45;;;;;;;-4.41;81.11;101331.82;1741337;82;21444;-65
2024/01/10 00:36:50;;;;;;;5.50;2.67;;;;;;;-4.45;80.96;101323.56;1736333;82;21036;-65
2024/01/10 00:39:18;;;;;;;3.52;2.10;;;;;;;-4.48;80.91;101327.73;1720852;82;21035;-65
2024/01/10 00:41:47;;;;;;;4.33;2.25;;;;;;;-4.49;80.80;101328.68;1741475;82;21063;-64
2024/01/10 00:44:15;;;;;;;5.53;2.60;;;;;;;-4.54;80.54;101313.34;1736339;83;20992;-64
2024/01/10 00:46:43;;;;;;;4.58;2.55;;;;;;;-4.58;80.62;101325.11;1741341;82;21020;-65
2024/01/10 00:49:12;;;;;;;9.98;3.80;;;;;;;-4.59;80.66;101330.06;1736552;82;21028;-65
2024/01/10 00:51:41;;;;;;;8.00;3.35;;;;;;;-4.62;80.70;101333.76;1741588;82;20988;-64
2024/01/10 00:54:10;;;;;;;8.28;3.40;;;;;;;-4.61;80.82;101326.59;1741312;82;21032;-64
2024/01/10 00:56:40;;;;;;;8.48;3.33;;;;;;;-4.63;80.81;101320.47;1736325;82;21071;-65
2024/01/10 00:59:08;;;;;;;10.13;3.47;;;;;;;-4.63;80.87;101328.48;1741315;82;21024;-63
2024/01/10 01:01:37;;;;;;;9.23;2.85;;;;;;;-4.62;80.86;101321.73;1723646;82;21091;-65
2024/01/10 01:04:06;;;;;;;7.10;3.02;;;;;;;-4.64;80.96;101319.60;1746965;82;21023;-65
2024/01/10 01:06:35;;;;;;;5.35;2.60;;;;;;;-4.66;81.06;101312.13;1747057;82;21067;-64
2024/01/10 01:09:03;;;;;;;5.30;2.40;;;;;;;-4.66;81.15;101317.48;1746986;82;20992;-64
2024/01/10 01:11:32;;;;;;;5.53;2.62;;;;;;;-4.67;81.28;101306.86;1746844;82;21007;-65
2024/01/10 01:14:00;;;;;;;6.50;2.62;;;;;;;-4.69;81.37;101302.93;1746751;82;20987;-65
2024/01/10 01:16:29;;;;;;;6.17;2.75;;;;;;;-4.70;81.51;101302.53;1713737;84;21060;-65
2024/01/10 01:18:57;;;;;;;6.90;2.70;;;;;;;-4.70;81.67;101310.56;1746905;82;21067;-64
2024/01/10 01:21:26;;;;;;;4.95;2.52;;;;;;;-4.69;81.79;101310.09;1713636;84;21448;-65
2024/01/10 01:23:55;;;;;;;5.85;2.40;;;;;;;-4.66;82.01;101307.26;1747036;82;21035;-65
2024/01/10 01:26:23;;;;;;;6.33;2.67;;;;;;;-4.66;82.01;101307.26;1711110;84;21063;-65
2024/01/10 01:28:52;;;;;;;4.70;2.50;;;;;;;-4.65;82.20;101292.47;1711087;84;21476;-64
2024/01/10 01:31:21;;;;;;;6.05;3.00;;;;;;;-4.62;82.26;101292.78;1711056;83;21496;-63
2024/01/10 01:33:49;;;;;;;4.50;2.58;;;;;;;-4.64;82.35;101281.30;1688361;85;21075;-65
2024/01/10 01:36:18;;;;;;;6.95;2.92;;;;;;;-4.62;82.41;101282.09;1747004;82;21086;-66
2024/01/10 01:38:46;;;;;;;6.25;3.40;;;;;;;-4.61;82.48;101277.13;1746983;82;21036;-65
2024/01/10 01:41:15;;;;;;;8.23;3.45;;;;;;;-4.60;82.57;101277.52;1746789;82;21047;-65
2024/01/10 01:43:44;;;;;;;8.13;3.30;;;;;;;-4.60;82.90;101280.20;1746770;82;21028;-65
2024/01/10 01:46:12;;;;;;;7.15;3.08;;;;;;;-4.62;82.89;101282.95;1746857;82;21020;-64
2024/01/10 01:48:41;;;;;;;8.18;3.42;;;;;;;-4.61;83.02;101266.44;1713590;83;21076;-65
2024/01/10 01:51:10;;;;;;;7.97;3.10;;;;;;;-4.61;83.02;101266.44;1746700;82;21533;-64
2024/01/10 01:53:39;;;;;;;7.15;3.27;;;;;;;-4.58;83.17;101268.95;1746791;82;21120;-66
2024/01/10 01:56:08;;;;;;;5.40;2.40;;;;;;;-4.56;83.26;101268.41;1713700;84;21075;-64
2024/01/10 01:58:37;;;;;;;8.60;2.87;;;;;;;-4.57;83.32;101260.85;1746803;82;21479;-66
2024/01/10 02:01:06;;;;;;;5.00;2.60;;;;;;;-4.53;83.43;101258.91;1713570;82;21091;-63
2024/01/10 02:03:35;;;;;;;6.65;3.00;;;;;;;-4.55;83.46;101251.45;1746820;82;21087;-65
2024/01/10 02:06:05;;;;;;;5.10;2.47;;;;;;;-4.54;83.61;101249.16;1747165;82;21082;-65
2024/01/10 02:08:34;;;;;;;5.62;2.72;;;;;;;-4.54;83.70;101245.15;1746919;82;21071;-64
2024/01/10 02:11:02;;;;;;;7.00;2.90;;;;;;;-4.53;83.81;101245.55;1746759;82;21111;-67
2024/01/10 02:13:32;;;;;;;6.30;2.60;;;;;;;-4.57;83.83;101234.58;1746985;82;21435;-65
2024/01/10 02:16:03;;;;;;;5.62;2.90;;;;;;;-4.59;83.99;101231.13;1746934;82;21074;-66
2024/01/10 02:18:34;;;;;;;4.92;2.50;;;;;;;-4.60;84.17;101228.92;1713814;84;21040;-65
2024/01/10 02:21:04;;;;;;;5.35;2.50;;;;;;;-4.58;84.33;101231.05;1746821;82;21052;-65
2024/01/10 02:23:32;;;;;;;4.58;2.45;;;;;;;-4.54;84.35;101222.42;1747035;82;21040;-63
2024/01/10 02:26:01;;;;;;;5.62;2.37;;;;;;;-4.55;84.39;101229.58;1746961;82;21051;-66
2024/01/10 02:28:30;;;;;;;6.35;2.60;;;;;;;-4.53;84.53;101210.78;1746966;82;21055;-66
2024/01/10 02:30:58;;;;;;;6.55;2.83;;;;;;;-4.53;84.52;101209.44;1746983;82;21059;-65
2024/01/10 02:33:27;;;;;;;5.67;2.65;;;;;;;-4.54;84.72;101206.37;1747125;82;21046;-65
2024/01/10 02:35:56;;;;;;;5.22;2.65;;;;;;;-4.54;84.82;101207.24;1713528;83;21044;-64
2024/01/10 02:38:24;;;;;;;8.58;2.87;;;;;;;-4.53;84.93;101201.42;1746800;82;21056;-63
2024/01/10 02:40:55;;;;;;;6.42;2.80;;;;;;;-4.54;84.92;101204.56;1746907;82;21102;-64
2024/01/10 02:43:23;;;;;;;7.37;2.90;;;;;;;-4.54;85.05;101197.88;1746915;82;21060;-65
2024/01/10 02:45:52;;;;;;;6.78;2.70;;;;;;;-4.57;85.15;101210.05;1746710;82;21107;-64
2024/01/10 02:48:20;;;;;;;6.85;3.25;;;;;;;-4.60;85.32;101200.84;1746928;82;21087;-65
2024/01/10 02:50:49;;;;;;;5.72;2.80;;;;;;;-4.57;85.41;101195.81;1713663;84;21057;-64
2024/01/10 02:53:18;;;;;;;6.30;2.40;;;;;;;-4.53;85.49;101197.41;1746624;82;22095;-65
2024/01/10 02:55:47;;;;;;;7.05;2.98;;;;;;;-4.54;85.50;101188.52;1713504;83;21040;-64
2024/01/10 02:58:16;;;;;;;5.08;2.80;;;;;;;-4.55;85.58;101193.48;1746719;82;21039;-65
2024/01/10 03:00:44;;;;;;;5.62;2.72;;;;;;;-4.54;85.66;101197.02;1747013;82;21095;-64
2024/01/10 03:03:13;;;;;;;8.53;3.85;;;;;;;-4.54;85.74;101193.01;1751856;82;21019;-66
2024/01/10 03:05:48;;;;;;;6.75;2.90;;;;;;;-4.52;85.78;101191.11;1751455;82;21517;-65
2024/01/10 03:08:16;;;;;;;5.35;2.37;;;;;;;-4.54;85.85;101187.66;1722148;82;21035;-65
2024/01/10 03:10:45;;;;;;;6.92;2.40;;;;;;;-4.52;86.00;101185.77;1715750;84;21049;-66
2024/01/10 03:13:13;;;;;;;5.22;2.52;;;;;;;-4.50;86.09;101187.88;1751481;82;21078;-64
2024/01/10 03:15:42;;;;;;;6.28;2.80;;;;;;;-4.48;86.10;101184.66;1751608;82;21031;-65
2024/01/10 03:18:11;;;;;;;6.37;2.85;;;;;;;-4.46;86.17;101177.41;1715441;84;21613;-65
2024/01/10 03:20:40;;;;;;;6.97;2.47;;;;;;;-4.47;86.20;101177.02;1751487;82;21455;-64
2024/01/10 03:23:08;;;;;;;4.60;2.70;;;;;;;-4.47;86.23;101181.89;1715511;84;21075;-65
2024/01/10 03:25:37;;;;;;;6.22;3.10;;;;;;;-4.45;86.30;101173.79;1751690;82;21540;-64
2024/01/10 03:28:06;;;;;;;5.83;2.87;;;;;;;-4.40;86.37;101184.23;1697828;84;21032;-64
2024/01/10 03:30:34;;;;;;;7.55;3.05;;;;;;;-4.38;86.34;101177.86;1722528;82;21521;-64
2024/01/10 03:33:03;;;;;;;8.18;3.33;;;;;;;-4.39;86.41;101185.97;1715730;83;21467;-65
2024/01/10 03:35:32;;;;;;;12.60;3.98;;;;;;;-4.39;86.48;101184.16;1722778;82;21061;-65
2024/01/10 03:38:00;;;;;;;8.68;3.37;;;;;;;-4.36;86.52;101181.78;1715660;83;21067;-65
2024/01/10 03:40:29;;;;;;;6.87;3.17;;;;;;;-4.35;86.64;101172.34;1722977;82;21020;-64
2024/01/10 03:42:58;;;;;;;6.85;3.27;;;;;;;-4.32;86.62;101171.31;1715628;82;21071;-65
2024/01/10 03:45:26;;;;;;;7.58;3.40;;;;;;;-4.33;86.67;101164.23;1751626;82;21051;-65
2024/01/10 03:47:55;;;;;;;6.37;2.92;;;;;;;-4.36;86.70;101165.27;1751677;82;21027;-65
2024/01/10 03:50:24;;;;;;;6.42;3.22;;;;;;;-4.37;86.84;101162.20;1751662;82;21074;-65
2024/01/10 03:52:53;;;;;;;6.67;3.22;;;;;;;-4.35;86.96;101166.99;1715785;83;21028;-65
2024/01/10 03:55:21;;;;;;;7.60;3.20;;;;;;;-4.35;87.09;101168.33;1751836;82;21031;-66
2024/01/10 03:57:50;;;;;;;8.85;3.40;;;;;;;-4.34;87.16;101164.70;1751746;82;21553;-65
2024/01/10 04:00:20;;;;;;;8.35;3.42;;;;;;;-4.33;87.21;101167.77;1715873;83;21027;-65
2024/01/10 04:02:48;;;;;;;6.60;3.67;;;;;;;-4.32;87.33;101166.83;1750216;81;21051;-63
2024/01/10 04:05:20;;;;;;;6.80;3.30;;;;;;;-4.31;87.41;101165.87;1727031;82;22036;-64
2024/01/10 04:07:49;;;;;;;6.30;3.22;;;;;;;-4.31;87.47;101154.31;1749502;82;21545;-64
2024/01/10 04:10:18;;;;;;;8.83;3.98;;;;;;;-4.30;87.55;101164.92;1749565;82;21505;-64
2024/01/10 04:12:47;;;;;;;7.45;3.30;;;;;;;-4.27;87.62;101157.20;1736382;83;21498;-65
2024/01/10 04:15:17;;;;;;;7.72;3.45;;;;;;;-4.25;87.63;101154.83;1741610;82;21020;-64
2024/01/10 04:17:45;;;;;;;5.62;3.00;;;;;;;-4.25;87.65;101161.52;1736286;82;21064;-64
2024/01/10 04:20:14;;;;;;;8.70;3.47;;;;;;;-4.25;87.74;101153.50;1741298;82;21023;-65
2024/01/10 04:22:43;;;;;;;11.20;4.25;;;;;;;-4.26;87.88;101145.08;1741290;82;20999;-65
2024/01/10 04:25:12;;;;;;;10.08;4.03;;;;;;;-4.25;87.97;101148.63;1741389;82;21059;-65
2024/01/10 04:27:40;;;;;;;6.60;3.40;;;;;;;-4.25;88.03;101144.61;1741462;82;21048;-66
2024/01/10 04:30:10;;;;;;;7.05;2.95;;;;;;;-4.26;88.14;101145.08;1716229;83;21087;-64
2024/01/10 04:32:39;;;;;;;5.97;3.50;;;;;;;-4.26;88.20;101153.11;1741484;82;21067;-65
2024/01/10 04:35:09;;;;;;;9.20;3.70;;;;;;;-4.24;88.37;101147.67;1741490;82;20996;-66
2024/01/10 04:37:38;;;;;;;6.90;3.40;;;;;;;-4.25;88.53;101139.25;1741265;82;21475;-69
2024/01/10 04:40:10;;;;;;;6.12;3.10;;;;;;;-4.27;88.64;101138.00;1741507;82;21107;-65
2024/01/10 04:42:38;;;;;;;7.00;3.62;;;;;;;-4.24;88.74;101135.16;1736315;83;21051;-65
2024/01/10 04:45:08;;;;;;;6.87;2.95;;;;;;;-4.21;88.83;101133.65;1741327;82;21471;-64
2024/01/10 04:47:36;;;;;;;6.22;2.92;;;;;;;-4.20;88.90;101121.13;1736278;82;21507;-65
2024/01/10 04:50:06;;;;;;;7.95;3.10;;;;;;;-4.22;88.97;101130.59;1741388;82;21088;-64
2024/01/10 04:52:37;;;;;;;18.85;4.15;;;;;;;-4.18;89.08;101135.29;1735966;81;21099;-65
2024/01/10 04:55:07;;;;;;;8.43;3.58;;;;;;;-4.19;89.21;101137.58;1741374;82;21023;-65
2024/01/10 04:57:36;;;;;;;12.55;4.03;;;;;;;-4.20;89.25;101151.43;1736282;82;21024;-65
2024/01/10 05:00:06;;;;;;;7.95;3.40;;;;;;;-4.19;89.37;101160.32;1741506;82;21064;-66
2024/01/10 05:02:37;;;;;;;8.58;4.40;;;;;;;-4.18;89.51;101144.66;1727615;82;21044;-65
2024/01/10 05:05:07;;;;;;;9.95;4.03;;;;;;;-4.15;89.69;101157.86;1747059;82;21047;-65
2024/01/10 05:07:36;;;;;;;10.10;4.05;;;;;;;-4.15;89.73;101164.55;1713597;83;21488;-66
2024/01/10 05:10:06;;;;;;;12.20;4.70;;;;;;;-4.15;89.80;101166.75;1747062;82;21063;-66
2024/01/10 05:12:34;;;;;;;13.15;4.90;;;;;;;-4.13;89.88;101165.33;1746987;82;21119;-65
2024/01/10 05:15:04;;;;;;;16.37;5.30;;;;;;;-4.12;89.92;101164.38;1746813;82;22064;-65
2024/01/10 05:17:33;;;;;;;12.63;4.97;;;;;;;-4.09;90.00;101171.38;1713715;84;21086;-65
2024/01/10 05:20:02;;;;;;;14.93;5.62;;;;;;;-4.09;90.12;101175.39;1747186;82;21023;-67
2024/01/10 05:22:32;;;;;;;12.20;5.30;;;;;;;-4.07;90.19;101184.20;1746850;82;21463;-66
2024/01/10 05:25:00;;;;;;;13.38;5.45;;;;;;;-4.04;90.29;101184.02;1713781;84;21008;-66
2024/01/10 05:27:29;;;;;;;10.30;4.97;;;;;;;-4.01;90.30;101184.72;1746982;82;21043;-65
2024/01/10 05:29:59;;;;;;;12.53;5.15;;;;;;;-4.00;90.35;101182.91;1746763;82;21583;-65
2024/01/10 05:32:29;;;;;;;9.45;4.90;;;;;;;-3.98;90.40;101181.87;1713557;84;21032;-65
2024/01/10 05:34:57;;;;;;;11.63;5.03;;;;;;;-3.96;90.45;101181.78;1718196;82;21099;-64
2024/01/10 05:37:26;;;;;;;9.83;4.40;;;;;;;-3.95;90.51;101188.86;1746935;82;21451;-66
2024/01/10 05:39:54;;;;;;;11.90;5.25;;;;;;;-3.93;90.55;101185.15;1717904;82;20992;-65
2024/01/10 05:42:23;;;;;;;10.00;4.58;;;;;;;-3.93;90.55;101197.67;1746829;82;20999;-65
2024/01/10 05:44:52;;;;;;;12.07;4.80;;;;;;;-3.93;90.60;101190.98;1747074;82;21031;-65
2024/01/10 05:47:21;;;;;;;9.08;4.35;;;;;;;-3.93;90.68;101194.98;1747073;82;21040;-66
2024/01/10 05:49:50;;;;;;;9.60;4.60;;;;;;;-3.92;90.72;101192.70;1746934;82;21026;-66
2024/01/10 05:52:19;;;;;;;10.45;4.75;;;;;;;-3.92;90.74;101192.23;1746982;82;21028;-67
2024/01/10 05:54:48;;;;;;;10.40;4.55;;;;;;;-3.92;90.84;101186.02;1746971;82;21039;-67
2024/01/10 05:57:17;;;;;;;10.50;5.03;;;;;;;-3.88;90.96;101191.62;1746932;82;21044;-66
2024/01/10 05:59:45;;;;;;;12.47;4.90;;;;;;;-3.88;91.00;101187.60;1746943;82;21117;-66
2024/01/10 06:02:16;;;;;;;11.60;4.92;;;;;;;-3.87;91.09;101182.63;1740073;82;21083;-66
2024/01/10 06:04:45;;;;;;;11.60;5.08;;;;;;;-3.91;91.12;101177.03;1752156;82;20999;-66
2024/01/10 06:07:15;;;;;;;13.43;5.28;;;;;;;-3.93;91.28;101186.97;1752055;82;21035;-67
2024/01/10 06:09:43;;;;;;;10.25;4.97;;;;;;;-3.95;91.46;101184.84;1751991;82;21035;-67
2024/01/10 06:12:12;;;;;;;12.13;5.35;;;;;;;-3.94;91.54;101191.92;1722980;82;21051;-66
2024/01/10 06:14:41;;;;;;;11.08;4.83;;;;;;;-3.95;91.60;101183.51;1715754;83;21493;-66
2024/01/10 06:17:09;;;;;;;13.60;5.78;;;;;;;-3.94;91.78;101172.72;1751969;82;21012;-66
2024/01/10 06:19:39;;;;;;;13.18;5.15;;;;;;;-3.92;91.82;101182.00;1751873;82;21095;-73
2024/01/10 06:22:08;;;;;;;13.93;5.90;;;;;;;-3.91;91.85;101182.38;1751795;82;21027;-67
2024/01/10 06:24:37;;;;;;;19.32;8.80;;;;;;;-3.91;91.90;101186.40;1751905;82;21511;-67
2024/01/10 06:27:06;;;;;;;13.45;5.90;;;;;;;-3.89;91.98;101184.06;1751742;82;21455;-67
2024/01/10 06:29:34;;;;;;;13.48;6.42;;;;;;;-3.86;92.04;101185.70;1722963;82;21039;-67
2024/01/10 06:32:06;;;;;;;16.00;5.80;;;;;;;-3.85;92.08;101190.11;1751995;82;21054;-66
2024/01/10 06:34:35;;;;;;;16.73;5.78;;;;;;;-3.84;92.13;101199.86;1752040;82;21055;-66
2024/01/10 06:37:04;;;;;;;11.08;5.47;;;;;;;-3.85;92.10;101204.35;1751915;82;21538;-66
2024/01/10 06:39:35;;;;;;;19.20;7.00;;;;;;;-3.85;92.16;101192.78;1751829;82;21027;-67
2024/01/10 06:42:06;;;;;;;19.27;8.05;;;;;;;-3.86;92.20;101199.95;1751807;82;21106;-66
2024/01/10 06:44:35;;;;;;;16.62;7.12;;;;;;;-3.84;92.33;101200.73;1752105;82;21023;-66
2024/01/10 06:47:04;;;;;;;15.72;6.75;;;;;;;-3.82;92.36;101197.09;1751762;82;21016;-66
2024/01/10 06:49:33;;;;;;;17.45;7.15;;;;;;;-3.82;92.38;101196.63;1751896;82;21063;-66
2024/01/10 06:52:02;;;;;;;16.77;6.85;;;;;;;-3.81;92.43;101197.01;1751936;82;21070;-66
2024/01/10 06:54:32;;;;;;;16.37;7.05;;;;;;;-3.81;92.50;101199.69;1751979;82;21051;-66
2024/01/10 06:57:01;;;;;;;19.67;7.65;;;;;;;-3.75;92.59;101210.05;1751966;82;21027;-67
2024/01/10 06:59:30;;;;;;;17.85;7.30;;;;;;;-3.73;92.56;101209.49;1722739;82;21075;-66
2024/01/10 07:02:01;;;;;;;18.62;7.50;;;;;;;-3.70;92.51;101212.47;1751866;82;21047;-65
2024/01/10 07:04:29;;;;;;;16.42;7.42;;;;;;;-3.72;92.41;101208.54;1723340;82;21055;-66
2024/01/10 07:06:58;;;;;;;31.10;17.27;;;;;;;-3.71;92.46;101213.42;1751983;82;21027;-66
2024/01/10 07:09:27;;;;;;;15.28;7.17;;;;;;;-3.68;92.43;101211.91;1751936;82;21470;-64
2024/01/10 07:11:55;;;;;;;17.57;7.50;;;;;;;-3.67;92.42;101209.14;1722708;82;21063;-66
2024/01/10 07:14:26;;;;;;;22.55;7.50;;;;;;;-3.67;92.36;101206.47;1751905;82;21087;-66
2024/01/10 07:16:56;;;;;;;21.80;8.30;;;;;;;-3.65;92.41;101207.72;1751890;82;21035;-66
2024/01/10 07:19:26;;;;;;;21.33;8.50;;;;;;;-3.60;92.49;101202.48;1723212;82;21067;-65
2024/01/10 07:21:55;;;;;;;22.85;9.13;;;;;;;-3.57;92.38;101202.31;1751839;82;21059;-68
2024/01/10 07:24:23;;;;;;;22.07;9.10;;;;;;;-3.53;92.34;101200.31;1752137;82;21019;-66
2024/01/10 07:26:52;;;;;;;22.22;8.68;;;;;;;-3.52;92.28;101197.55;1751853;82;21499;-66
2024/01/10 07:29:21;;;;;;;19.30;8.60;;;;;;;-3.48;92.28;101192.87;1752089;82;21114;-66
2024/01/10 07:31:52;;;;;;;18.45;8.03;;;;;;;-3.45;92.19;101194.52;1722785;82;21043;-66
2024/01/10 07:34:22;;;;;;;20.23;7.60;;;;;;;-3.42;92.17;101193.00;1751854;82;21444;-67
2024/01/10 07:36:51;;;;;;;15.95;7.50;;;;;;;-3.40;91.95;101190.62;1751852;82;22018;-66
2024/01/10 07:39:20;;;;;;;17.45;7.53;;;;;;;-3.38;91.89;101186.51;1752049;82;21027;-67
2024/01/10 07:41:49;;;;;;;16.40;7.25;;;;;;;-3.36;91.85;101182.78;1752104;82;21071;-66
2024/01/10 07:44:18;;;;;;;17.17;7.83;;;;;;;-3.33;91.74;101189.30;1751857;82;21525;-66
2024/01/10 07:46:47;;;;;;;19.90;7.55;;;;;;;-3.32;91.58;101198.20;1751866;82;21027;-65
2024/01/10 07:49:16;;;;;;;16.57;7.58;;;;;;;-3.33;91.49;101199.16;1723189;82;21051;-66
2024/01/10 07:51:45;;;;;;;20.55;7.22;;;;;;;-3.33;91.45;101201.36;1688090;83;21024;-65
2024/01/10 07:54:14;;;;;;;17.62;7.55;;;;;;;-3.32;91.35;101195.53;1722855;82;21533;-65
2024/01/10 07:56:42;;;;;;;17.92;7.08;;;;;;;-3.33;91.31;101199.16;1751904;82;21511;-65
2024/01/10 07:59:15;;;;;;;16.48;7.35;;;;;;;-3.33;91.31;101196.00;1751902;82;21027;-66
2024/01/10 08:01:45;;;;;;;18.12;7.58;;;;;;;-3.36;91.12;101194.84;1751804;82;21090;-66
2024/01/10 08:04:13;;;;;;;17.62;8.15;;;;;;;-3.37;91.22;101206.98;1725911;81;21075;-67
2024/01/10 08:06:44;;;;;;;20.37;8.85;;;;;;;-3.36;91.24;101213.59;1752172;82;21505;-66
2024/01/10 08:09:14;;;;;;;22.95;9.75;;;;;;;-3.36;91.29;101214.94;1700833;83;21060;-66
2024/01/10 08:11:43;;;;;;;21.45;9.30;;;;;;;-3.34;91.34;101211.69;1723720;82;21550;-64
2024/01/10 08:14:12;;;;;;;21.68;8.90;;;;;;;-3.31;91.36;101208.83;1718700;83;21484;-66
2024/01/10 08:16:40;;;;;;;24.30;10.05;;;;;;;-3.30;91.30;101205.67;1752108;82;21086;-67
2024/01/10 08:19:09;;;;;;;26.02;10.85;;;;;;;-3.27;91.37;101209.52;1718887;82;21047;-66
2024/01/10 08:21:38;;;;;;;22.35;10.78;;;;;;;-3.20;91.45;101214.94;1752214;82;21067;-70
2024/01/10 08:24:07;;;;;;;26.25;9.90;;;;;;;-3.16;91.36;101220.98;1700876;83;21432;-66
2024/01/10 08:26:37;;;;;;;23.20;10.45;;;;;;;-3.15;91.26;101223.58;1752128;82;21467;-67
2024/01/10 08:29:07;;;;;;;23.65;9.30;;;;;;;-3.14;91.20;101224.44;1718724;83;21047;-66
2024/01/10 08:31:35;;;;;;;21.80;9.63;;;;;;;-3.14;91.16;101221.28;1752180;82;21533;-67
2024/01/10 08:34:04;;;;;;;25.35;10.23;;;;;;;-3.10;91.16;101221.48;1718878;83;21051;-67
2024/01/10 08:36:34;;;;;;;22.70;10.10;;;;;;;-3.10;90.95;101213.92;1752302;82;21075;-67
2024/01/10 08:39:03;;;;;;;26.12;11.10;;;;;;;-3.12;90.96;101222.53;1718764;83;21064;-66
2024/01/10 08:41:33;;;;;;;23.12;10.32;;;;;;;-3.12;91.00;101228.75;1752122;82;21019;-67
2024/01/10 08:44:04;;;;;;;27.65;10.75;;;;;;;-3.13;90.92;101228.37;1718813;83;21150;-67
2024/01/10 08:46:33;;;;;;;26.77;11.65;;;;;;;-3.15;90.92;101229.41;1723292;82;21061;-66
2024/01/10 08:49:02;;;;;;;23.18;10.72;;;;;;;-3.15;91.01;101230.27;1700870;83;21032;-66
2024/01/10 08:51:31;;;;;;;23.30;9.38;;;;;;;-3.12;91.10;101236.80;1723263;82;21062;-66
2024/01/10 08:54:00;;;;;;;25.02;10.75;;;;;;;-3.10;91.07;101238.05;1718772;83;21071;-67
2024/01/10 08:56:30;;;;;;;25.92;10.45;;;;;;;-3.09;91.10;101233.07;1716410;83;21083;-67
2024/01/10 08:58:59;;;;;;;24.18;10.60;;;;;;;-3.06;91.14;101212.78;1717286;83;21078;-67
2024/01/10 09:01:36;;;;;;;21.30;8.75;;;;;;;-3.05;91.21;101218.05;1676134;82;21079;-69
2024/01/10 09:04:15;;;;;;;22.85;9.00;;;;;;;-3.02;91.37;101213.85;1758411;80;21055;-69
2024/01/10 09:06:49;;;;;;;;;;;;;;;-2.99;91.35;101212.33;1780824;80;21067;-68
2024/01/10 09:09:23;;;;;;;25.25;11.08;;;;;;;-2.96;91.40;101213.96;1796644;80;20469;-67
2024/01/10 09:11:54;;;;;;;24.35;10.13;;;;;;;-2.85;92.04;101212.84;1703189;83;21058;-69
2024/01/10 09:14:24;;;;;;;22.52;9.78;;;;;;;-2.76;91.93;101216.79;1722923;83;21047;-70
2024/01/10 09:16:55;;;;;;;21.05;9.25;;;;;;;-2.75;91.63;101209.13;1689709;83;21047;-69
2024/01/10 09:19:46;;;;;;;22.65;10.30;;;;;;;-2.81;91.29;101203.66;1748470;80;21417;-68
2024/01/10 09:22:15;;;;;;;23.10;10.32;;;;;;;-2.84;91.31;101200.30;1658160;86;21086;-69
2024/01/10 09:24:44;;;;;;;21.20;9.55;;;;;;;-2.82;91.43;101195.23;1658152;86;21102;-70
2024/01/10 09:27:14;;;;;;;21.87;9.80;;;;;;;-2.77;91.48;101190.92;1692906;85;21067;-70
2024/01/10 09:29:43;;;;;;;25.40;9.75;;;;;;;-2.74;91.44;101194.28;1699595;83;21038;-69
2024/01/10 09:32:13;;;;;;;21.65;9.38;;;;;;;-2.70;91.24;101189.12;1727920;83;21114;-69
2024/01/10 09:34:42;;;;;;;22.30;9.23;;;;;;;-2.70;91.22;101178.86;1703062;83;21199;-68
2024/01/10 09:37:11;;;;;;;22.98;9.00;;;;;;;-2.69;91.19;101181.45;1747674;82;21523;-69
2024/01/10 09:39:40;;;;;;;23.10;9.45;;;;;;;-2.66;91.20;101183.09;1749747;82;21180;-68
2024/01/10 09:42:09;;;;;;;19.87;9.05;;;;;;;-2.66;91.05;101183.09;1749731;82;21068;-68
2024/01/10 09:44:39;;;;;;;24.60;9.85;;;;;;;-2.66;90.97;101183.09;1749616;81;21095;-69
2024/01/10 09:47:08;;;;;;;22.80;9.70;;;;;;;-2.46;93.54;101186.77;1749804;81;21526;-70
2024/01/10 09:49:37;;;;;;;23.15;10.68;;;;;;;-2.40;92.84;101183.70;1749827;82;21520;-69
2024/01/10 09:52:10;;;;;;;24.45;9.83;;;;;;;-2.41;92.47;101181.98;1749670;82;21457;-70
2024/01/10 09:54:39;;;;;;;27.70;10.60;;;;;;;-2.44;92.13;101179.48;1750040;82;21477;-68
2024/01/10 09:57:09;;;;;;;26.93;11.10;;;;;;;-2.44;91.96;101190.22;1729090;82;21068;-71
2024/01/10 09:59:38;;;;;;;24.72;10.75;;;;;;;-2.44;91.69;101185.34;1729538;82;21116;-69
2024/01/10 10:02:08;;;;;;;21.17;9.43;;;;;;;-2.47;91.31;101174.80;1728784;82;21485;-69
2024/01/10 10:04:37;;;;;;;27.85;11.15;;;;;;;-2.51;91.21;101171.92;1749583;82;21061;-69
2024/01/10 10:07:06;;;;;;;39.73;16.15;;;;;;;-2.51;91.15;101175.94;1749739;82;21180;-69
2024/01/10 10:09:36;;;;;;;27.07;11.28;;;;;;;-2.52;91.11;101180.92;1748575;82;21115;-69
2024/01/10 10:12:06;;;;;;;36.45;14.38;;;;;;;-2.53;91.06;101179.20;1720062;82;21149;-69
2024/01/10 10:14:38;;;;;;;26.62;11.05;;;;;;;-2.55;90.97;101183.32;1719873;83;21005;-69
2024/01/10 10:17:17;;;;;;;24.72;10.80;;;;;;;-2.56;91.01;101182.45;1719875;83;21078;-70
2024/01/10 10:19:47;;;;;;;23.42;11.33;;;;;;;-2.55;91.06;101181.98;1719971;83;21041;-68
2024/01/10 10:22:17;;;;;;;26.97;11.85;;;;;;;-2.59;90.92;101184.47;1712057;83;21112;-69
2024/01/10 10:24:48;;;;;;;24.43;11.22;;;;;;;-2.62;91.06;101187.30;1730005;83;21155;-70
2024/01/10 10:27:17;;;;;;;26.65;11.65;;;;;;;-2.61;91.25;101174.28;1729949;83;21098;-68
2024/01/10 10:29:46;;;;;;;25.32;10.40;;;;;;;-2.59;91.34;101175.94;1730090;82;21100;-69
2024/01/10 10:32:18;;;;;;;23.32;9.78;;;;;;;-2.54;91.42;101180.16;1730145;82;21057;-68
2024/01/10 10:34:47;;;;;;;28.85;11.60;;;;;;;-2.54;91.46;101167.61;1712305;83;21041;-69
2024/01/10 10:37:16;;;;;;;26.10;11.15;;;;;;;-2.53;91.46;101172.49;1711730;83;21488;-68
2024/01/10 10:39:45;;;;;;;24.57;9.98;;;;;;;-2.51;91.54;101171.44;1730065;83;21068;-69
2024/01/10 10:42:15;;;;;;;22.85;9.80;;;;;;;-2.47;91.54;101161.38;1730087;82;21076;-69
2024/01/10 10:44:43;;;;;;;19.77;9.10;;;;;;;-2.46;91.55;101167.12;1730018;83;21060;-69
2024/01/10 10:47:12;;;;;;;23.15;10.43;;;;;;;-2.43;91.58;101166.94;1730315;83;21025;-69
2024/01/10 10:49:47;;;;;;;24.70;9.93;;;;;;;-2.37;92.00;101167.89;1730132;83;21548;-69
2024/01/10 10:52:15;;;;;;;22.85;10.25;;;;;;;-2.30;91.94;101170.57;1730410;83;21048;-69
2024/01/10 10:54:45;;;;;;;24.40;10.38;;;;;;;-2.31;91.64;101173.73;1730191;82;21072;-67
2024/01/10 10:57:14;;;;;;;27.58;11.18;;;;;;;-2.31;91.63;101173.73;1730203;82;21080;-70
2024/01/10 10:59:44;;;;;;;25.32;10.35;;;;;;;-2.31;91.64;101180.45;1711956;83;21040;-68
2024/01/10 11:02:13;;;;;;;25.43;11.08;;;;;;;-2.29;91.54;101179.87;1730144;83;21068;-66
2024/01/10 11:04:42;;;;;;;27.05;11.93;;;;;;;-2.29;91.56;101181.21;1730260;83;21807;-67
2024/01/10 11:07:12;;;;;;;25.92;10.35;;;;;;;-2.27;91.59;101178.44;1730279;83;21115;-67
2024/01/10 11:09:44;;;;;;;26.25;10.20;;;;;;;-2.26;91.47;101168.94;1732895;81;21124;-66
2024/01/10 11:12:24;;;;;;;27.85;11.15;;;;;;;-2.26;91.46;101174.79;1731291;81;21068;-67
2024/01/10 11:15:17;;;;;;;25.02;9.93;;;;;;;-2.25;91.37;101184.09;1760058;81;21080;-66
2024/01/10 11:18:11;;;;;;;26.00;9.30;;;;;;;-2.28;91.29;101176.70;1760273;81;21103;-70
2024/01/10 11:21:08;;;;;;;23.60;11.03;;;;;;;-2.30;91.38;101179.48;1758414;81;21076;-70
2024/01/10 11:23:50;;;;;;;28.35;12.98;;;;;;;-2.30;91.40;101192.05;1762520;81;21471;-70
2024/01/10 11:26:20;;;;;;;26.37;11.70;;;;;;;-2.30;91.44;101190.70;1762719;81;21079;-71
2024/01/10 11:28:49;;;;;;;30.43;12.75;;;;;;;-2.28;91.47;101180.25;1697105;82;21046;-70
2024/01/10 11:31:30;;;;;;;24.65;11.22;;;;;;;-2.26;91.48;101185.52;1762830;81;21487;-68